Time;durP1;ratioP1;P1;durP2;ratioP2;P2;SDS_P1;SDS_P2;PMS_P1;PMS_P2;Temp;Humidity;BMP_temperature;BMP_pressure;BME280_temperature;BME280_humidity;BME280_pressure;Samples;Min_cycle;Max_cycle;Signal;HPM_P1;HPM_P2
2022/11/28 00:00:28;;;;;;;48.40;27.30;;;6.60;99.90;;;;;;5051236;28;20031;-58
2022/11/28 00:02:54;;;;;;;50.22;28.38;;;6.60;99.90;;;;;;5034417;28;20025;-55
2022/11/28 00:05:20;;;;;;;48.53;29.05;;;6.60;99.90;;;;;;5050656;28;20045;-57
2022/11/28 00:07:45;;;;;;;53.25;29.88;;;6.60;99.90;;;;;;5051468;28;20096;-57
2022/11/28 00:10:11;;;;;;;47.30;27.38;;;6.80;99.90;;;;;;5052420;28;20067;-58
2022/11/28 00:12:37;;;;;;;49.78;29.85;;;6.90;99.90;;;;;;5042827;28;20476;-59
2022/11/28 00:15:04;;;;;;;53.22;28.63;;;6.90;99.90;;;;;;5001045;28;20112;-55
2022/11/28 00:17:30;;;;;;;51.60;28.23;;;6.70;99.90;;;;;;5051660;28;20021;-56
2022/11/28 00:19:56;;;;;;;54.40;31.02;;;6.60;99.90;;;;;;5051691;28;20108;-56
2022/11/28 00:22:22;;;;;;;49.72;29.15;;;6.40;99.90;;;;;;5051010;28;20025;-56
2022/11/28 00:24:48;;;;;;;51.25;28.27;;;6.40;99.90;;;;;;5000468;28;20040;-55
2022/11/28 00:27:14;;;;;;;51.38;29.27;;;6.40;99.90;;;;;;4944925;28;20212;-60
2022/11/28 00:29:39;;;;;;;55.92;30.33;;;6.60;99.90;;;;;;5004578;28;20045;-60
2022/11/28 00:32:05;;;;;;;57.33;30.55;;;6.60;99.90;;;;;;4977021;28;20037;-60
2022/11/28 00:34:31;;;;;;;56.92;29.83;;;6.60;99.90;;;;;;5003551;28;20026;-61
2022/11/28 00:36:57;;;;;;;57.50;29.20;;;6.40;99.90;;;;;;5001659;28;20426;-59
2022/11/28 00:39:22;;;;;;;55.30;28.50;;;6.60;99.90;;;;;;5006531;28;20040;-55
2022/11/28 00:41:48;;;;;;;58.08;29.13;;;6.60;99.90;;;;;;5009421;28;20426;-54
2022/11/28 00:44:14;;;;;;;55.50;31.38;;;6.50;99.90;;;;;;5006355;28;20045;-57
2022/11/28 00:46:40;;;;;;;58.17;30.42;;;6.70;99.90;;;;;;5010081;28;20041;-55
2022/11/28 00:49:06;;;;;;;57.63;28.98;;;6.70;99.90;;;;;;5008701;28;20066;-59
2022/11/28 00:51:33;;;;;;;64.90;31.50;;;6.80;99.90;;;;;;5009260;28;20026;-59
2022/11/28 00:54:00;;;;;;;58.33;32.13;;;6.70;99.90;;;;;;5008538;28;20042;-56
2022/11/28 00:56:33;;;;;;;61.28;30.73;;;6.80;99.90;;;;;;5000819;28;20042;-53
2022/11/28 00:58:59;;;;;;;59.85;31.50;;;6.80;99.90;;;;;;5044457;28;20511;-59
2022/11/28 01:01:34;;;;;;;64.93;32.30;;;6.90;99.90;;;;;;5051261;28;20086;-60
2022/11/28 01:04:02;;;;;;;66.45;29.83;;;7.00;99.90;;;;;;5040192;28;20026;-54
2022/11/28 01:06:31;;;;;;;62.00;32.15;;;7.00;99.90;;;;;;5052042;28;20080;-55
2022/11/28 01:09:00;;;;;;;59.88;30.63;;;6.90;99.90;;;;;;5036799;28;20029;-60
2022/11/28 01:11:27;;;;;;;65.00;33.40;;;7.10;99.90;;;;;;5051031;28;20088;-55
2022/11/28 01:13:55;;;;;;;68.05;32.72;;;7.10;99.90;;;;;;5050546;28;20551;-55
2022/11/28 01:16:20;;;;;;;63.72;32.92;;;7.10;99.90;;;;;;4982237;28;20402;-59
2022/11/28 01:18:46;;;;;;;67.32;32.75;;;7.00;99.90;;;;;;4985536;28;20137;-57
2022/11/28 01:21:12;;;;;;;61.50;31.40;;;7.10;99.90;;;;;;4981896;28;20438;-55
2022/11/28 01:23:38;;;;;;;62.40;31.60;;;7.00;99.90;;;;;;4986184;28;20026;-60
2022/11/28 01:26:05;;;;;;;66.38;37.42;;;7.00;99.90;;;;;;4988108;28;20034;-61
2022/11/28 01:28:32;;;;;;;69.88;34.40;;;7.00;99.90;;;;;;4986044;28;20486;-59
2022/11/28 01:31:03;;;;;;;65.70;32.47;;;6.90;99.90;;;;;;4969539;28;20038;-57
2022/11/28 01:33:29;;;;;;;68.72;34.50;;;7.00;99.90;;;;;;4983725;28;20125;-54
2022/11/28 01:35:57;;;;;;;65.07;33.08;;;6.90;99.90;;;;;;4965814;28;20126;-56
2022/11/28 01:38:23;;;;;;;67.60;34.22;;;6.70;99.90;;;;;;4982442;28;20046;-60
2022/11/28 01:40:49;;;;;;;67.43;32.78;;;6.70;99.90;;;;;;4988232;28;20081;-57
2022/11/28 01:43:15;;;;;;;73.50;33.65;;;6.80;99.90;;;;;;4955326;28;20038;-59
2022/11/28 01:45:41;;;;;;;73.68;36.58;;;6.80;99.90;;;;;;4957584;28;20064;-58
2022/11/28 01:48:09;;;;;;;75.55;35.33;;;6.80;99.90;;;;;;5032781;28;20468;-52
2022/11/28 01:50:37;;;;;;;76.57;34.50;;;6.80;99.90;;;;;;5041300;28;20021;-58
2022/11/28 01:53:06;;;;;;;72.32;32.40;;;7.00;99.90;;;;;;5053335;28;20036;-51
2022/11/28 01:55:39;;;;;;;71.93;33.92;;;6.90;99.90;;;;;;5050309;28;20104;-56
2022/11/28 01:58:05;;;;;;;;;;;6.80;99.90;;;;;;5052350;28;20045;-58
2022/11/28 02:00:33;;;;;;;74.57;33.30;;;7.00;99.90;;;;;;5050122;28;19920;-61
2022/11/28 02:03:25;;;;;;;75.93;34.08;;;6.80;99.90;;;;;;5054441;28;20124;-60
2022/11/28 02:05:51;;;;;;;;;;;6.80;99.90;;;;;;5010808;28;20048;-60
2022/11/28 02:08:17;;;;;;;67.72;30.25;;;6.70;99.90;;;;;;5041524;28;19909;-61
2022/11/28 02:10:54;;;;;;;74.47;34.28;;;6.30;99.90;;;;;;5043438;28;20490;-58
2022/11/28 02:13:43;;;;;;;73.53;33.50;;;6.30;99.90;;;;;;5042790;28;20029;-55
2022/11/28 02:16:17;;;;;;;83.53;34.53;;;6.40;99.90;;;;;;5052723;28;20040;-58
2022/11/28 02:19:01;;;;;;;75.97;32.58;;;6.20;99.90;;;;;;5011976;28;20048;-60
2022/11/28 02:21:38;;;;;;;73.18;32.78;;;;;;;;;;5031877;28;20120;-55
2022/11/28 02:24:22;;;;;;;79.07;34.38;;;6.20;99.90;;;;;;5048350;28;20033;-53
2022/11/28 02:27:12;;;;;;;76.20;34.90;;;6.30;99.90;;;;;;5051177;28;20056;-57
2022/11/28 02:29:51;;;;;;;80.60;35.70;;;6.20;99.90;;;;;;5048545;28;20116;-60
2022/11/28 02:32:25;;;;;;;73.88;35.05;;;6.40;99.90;;;;;;5053790;28;20383;-56
2022/11/28 02:35:00;;;;;;;74.00;33.60;;;6.50;99.90;;;;;;5054130;28;20036;-59
2022/11/28 02:37:37;;;;;;;77.00;33.38;;;6.30;99.90;;;;;;5016232;28;20029;-53
2022/11/28 02:40:12;;;;;;;78.53;33.58;;;6.30;99.90;;;;;;5024368;28;20044;-52
2022/11/28 02:43:11;;;;;;;74.38;32.08;;;6.40;99.90;;;;;;5052298;28;20032;-61
2022/11/28 02:45:56;;;;;;;78.80;32.47;;;6.60;99.90;;;;;;5051656;28;20036;-57
2022/11/28 02:48:32;;;;;;;73.28;33.53;;;6.60;99.90;;;;;;5043986;28;20057;-58
2022/11/28 02:51:06;;;;;;;73.32;31.52;;;6.60;99.90;;;;;;5048563;28;20025;-59
2022/11/28 02:53:34;;;;;;;76.30;32.90;;;6.70;99.90;;;;;;5051950;28;20025;-61
2022/11/28 02:56:00;;;;;;;74.47;32.60;;;6.60;99.90;;;;;;5052261;28;20021;-60
2022/11/28 02:58:25;;;;;;;71.45;30.88;;;6.50;99.90;;;;;;5048989;28;20048;-56
2022/11/28 03:00:51;;;;;;;76.68;32.78;;;6.60;99.90;;;;;;5034317;28;20404;-55
2022/11/28 03:03:27;;;;;;;74.88;33.03;;;6.80;99.90;;;;;;5051773;28;20032;-56
2022/11/28 03:06:11;;;;;;;69.45;33.35;;;6.90;99.90;;;;;;5053960;28;20047;-56
2022/11/28 03:09:10;;;;;;;71.18;32.75;;;7.10;99.90;;;;;;5046934;28;20031;-54
2022/11/28 03:11:55;;;;;;;69.82;33.72;;;7.30;99.90;;;;;;5047191;28;20089;-54
2022/11/28 03:14:28;;;;;;;76.40;34.08;;;7.30;99.90;;;;;;5050198;28;20052;-55
2022/11/28 03:16:53;;;;;;;;;;;7.20;99.90;;;;;;5045730;28;20121;-55
2022/11/28 03:19:26;;;;;;;63.92;28.30;;;7.30;99.90;;;;;;5047819;28;20364;-60
2022/11/28 03:22:11;;;;;;;69.25;31.80;;;7.30;99.90;;;;;;5017882;28;20088;-56
2022/11/28 03:24:47;;;;;;;67.82;31.85;;;7.30;99.90;;;;;;5045444;28;20083;-55
2022/11/28 03:27:28;;;;;;;72.97;30.73;;;7.30;99.90;;;;;;5051085;28;20031;-58
2022/11/28 03:30:09;;;;;;;69.68;33.60;;;7.30;99.90;;;;;;5016530;28;20053;-57
2022/11/28 03:32:38;;;;;;;68.70;30.95;;;7.30;99.90;;;;;;5001368;28;20048;-53
2022/11/28 03:35:08;;;;;;;69.22;30.98;;;7.10;99.90;;;;;;5044421;28;20424;-52
2022/11/28 03:37:44;;;;;;;76.45;32.45;;;7.10;99.90;;;;;;5002637;28;20049;-56
2022/11/28 03:40:16;;;;;;;71.80;32.10;;;7.10;99.90;;;;;;4978124;28;20043;-54
2022/11/28 03:42:46;;;;;;;74.72;32.15;;;7.10;99.90;;;;;;4979916;28;20039;-53
2022/11/28 03:45:18;;;;;;;69.70;33.45;;;7.00;99.90;;;;;;4989934;28;20035;-57
2022/11/28 03:47:48;;;;;;;66.72;30.83;;;7.10;99.90;;;;;;4977217;28;20051;-54
2022/11/28 03:50:23;;;;;;;69.88;31.73;;;6.90;99.90;;;;;;4974661;28;20070;-58
2022/11/28 03:52:54;;;;;;;67.07;30.58;;;7.00;99.90;;;;;;4983671;28;20490;-54
2022/11/28 03:55:55;;;;;;;71.22;33.85;;;7.20;99.90;;;;;;4980828;28;20420;-51
2022/11/28 03:58:27;;;;;;;72.07;32.33;;;;;;;;;;4981963;28;20560;-56
2022/11/28 04:01:05;;;;;;;71.43;33.17;;;7.60;99.90;;;;;;4978369;28;20042;-55
2022/11/28 04:03:51;;;;;;;67.50;34.33;;;7.80;99.90;;;;;;4983338;28;20198;-56
2022/11/28 04:06:29;;;;;;;69.55;33.17;;;7.60;99.90;;;;;;4986005;28;20042;-57
2022/11/28 04:09:12;;;;;;;71.78;31.90;;;7.50;99.90;;;;;;4981218;28;20439;-58
2022/11/28 04:11:46;;;;;;;67.97;31.25;;;7.50;99.90;;;;;;5021009;28;20029;-61
2022/11/28 04:14:20;;;;;;;67.28;31.10;;;7.40;99.90;;;;;;5032402;28;20041;-56
2022/11/28 04:16:55;;;;;;;68.25;33.13;;;7.50;99.90;;;;;;5030993;28;20025;-52
2022/11/28 04:19:34;;;;;;;78.05;36.33;;;7.70;99.90;;;;;;5031731;28;20033;-55
2022/11/28 04:22:18;;;;;;;90.85;42.20;;;7.80;99.90;;;;;;5032017;28;20029;-58
2022/11/28 04:24:58;;;;;;;81.88;38.22;;;7.80;99.90;;;;;;5031420;28;20036;-53
2022/11/28 04:27:34;;;;;;;87.90;39.42;;;7.80;99.90;;;;;;5031954;28;20053;-60
2022/11/28 04:30:01;;;;;;;80.22;37.83;;;7.80;99.90;;;;;;5032306;28;20021;-58
2022/11/28 04:32:31;;;;;;;72.75;33.90;;;7.90;99.90;;;;;;5031887;28;20027;-57
2022/11/28 04:35:11;;;;;;;81.05;36.75;;;7.80;99.90;;;;;;5031032;28;20036;-61
2022/11/28 04:37:38;;;;;;;83.20;36.25;;;7.80;99.90;;;;;;5031402;28;20060;-57
2022/11/28 04:40:08;;;;;;;81.68;35.15;;;7.60;99.90;;;;;;5028451;28;20065;-52
2022/11/28 04:42:42;;;;;;;76.05;35.88;;;7.50;99.90;;;;;;4978694;28;20527;-57
2022/11/28 04:45:14;;;;;;;76.07;33.28;;;7.40;99.90;;;;;;5025310;28;20127;-54
2022/11/28 04:47:41;;;;;;;77.32;32.88;;;7.20;99.90;;;;;;4995877;28;20053;-58
2022/11/28 04:50:07;;;;;;;74.60;30.65;;;7.10;99.90;;;;;;5048866;28;20035;-54
2022/11/28 04:52:45;;;;;;;65.28;32.70;;;7.00;99.90;;;;;;4996474;28;20033;-57
2022/11/28 04:55:17;;;;;;;74.68;31.98;;;;;;;;;;5008817;28;20041;-59
2022/11/28 04:57:47;;;;;;;74.57;30.70;;;6.90;99.90;;;;;;5012150;28;20044;-55
2022/11/28 05:00:17;;;;;;;73.60;31.85;;;6.70;99.90;;;;;;5047907;28;20505;-54
2022/11/28 05:02:45;;;;;;;76.38;32.60;;;6.80;99.90;;;;;;5043364;28;20025;-52
2022/11/28 05:05:15;;;;;;;75.88;32.58;;;6.80;99.90;;;;;;5052262;28;20036;-58
2022/11/28 05:07:41;;;;;;;78.07;32.15;;;6.70;99.90;;;;;;5042982;28;20043;-54
2022/11/28 05:10:07;;;;;;;105.60;29.50;;;6.70;99.90;;;;;;4983993;28;20037;-57
2022/11/28 05:12:33;;;;;;;138.07;41.70;;;6.50;99.90;;;;;;5051138;28;20032;-55
2022/11/28 05:14:59;;;;;;;104.30;50.63;;;6.60;99.90;;;;;;4997996;28;20029;-59
2022/11/28 05:17:24;;;;;;;81.70;36.60;;;6.90;99.90;;;;;;5049032;28;20033;-57
2022/11/28 05:19:50;;;;;;;102.38;29.75;;;7.00;99.90;;;;;;5049703;28;20116;-54
2022/11/28 05:22:16;;;;;;;119.90;33.50;;;6.80;99.90;;;;;;4976642;28;20033;-51
2022/11/28 05:24:41;;;;;;;105.80;29.77;;;6.80;99.90;;;;;;5053266;28;20029;-59
2022/11/28 05:27:07;;;;;;;102.05;30.48;;;6.40;99.90;;;;;;5053550;28;20033;-54
2022/11/28 05:29:33;;;;;;;110.65;32.15;;;6.40;99.90;;;;;;5054139;28;20028;-55
2022/11/28 05:31:59;;;;;;;82.28;29.40;;;;;;;;;;5053110;28;20028;-54
2022/11/28 05:34:25;;;;;;;92.72;27.50;;;6.30;99.90;;;;;;5054093;28;20033;-53
2022/11/28 05:36:51;;;;;;;96.22;28.35;;;6.30;99.90;;;;;;5053380;28;20033;-60
2022/11/28 05:39:16;;;;;;;57.08;23.90;;;6.20;99.90;;;;;;5017993;28;20132;-58
2022/11/28 05:41:42;;;;;;;60.38;26.08;;;6.10;99.90;;;;;;5050677;28;20056;-59
2022/11/28 05:44:09;;;;;;;55.13;25.35;;;6.10;99.90;;;;;;5052243;28;20032;-59
2022/11/28 05:46:34;;;;;;;58.95;26.95;;;6.00;99.90;;;;;;5053938;28;20033;-54
2022/11/28 05:49:00;;;;;;;43.10;23.13;;;6.20;99.90;;;;;;5053525;28;20053;-56
2022/11/28 05:51:26;;;;;;;54.47;25.85;;;6.00;99.90;;;;;;5052999;28;20025;-56
2022/11/28 05:53:52;;;;;;;45.85;23.08;;;6.10;99.90;;;;;;5053398;28;20099;-54
2022/11/28 05:56:19;;;;;;;48.58;24.27;;;6.00;99.90;;;;;;5002191;28;20507;-58
2022/11/28 05:58:45;;;;;;;50.08;23.88;;;6.10;99.90;;;;;;5052472;28;20041;-53
2022/11/28 06:01:17;;;;;;;49.92;24.65;;;6.20;99.90;;;;;;5045529;28;20032;-57
2022/11/28 06:03:44;;;;;;;49.95;22.48;;;6.10;99.90;;;;;;5051034;28;20126;-56
2022/11/28 06:06:20;;;;;;;54.13;24.95;;;5.90;99.90;;;;;;5049427;28;20029;-59
2022/11/28 06:08:47;;;;;;;48.08;19.65;;;5.90;99.90;;;;;;4989744;28;20053;-57
2022/11/28 06:11:14;;;;;;;44.83;20.88;;;5.80;99.90;;;;;;4987741;28;20096;-52
2022/11/28 06:13:41;;;;;;;44.83;19.67;;;5.80;99.90;;;;;;4987629;28;20026;-55
2022/11/28 06:16:09;;;;;;;44.72;20.60;;;5.50;99.90;;;;;;4988445;28;20514;-55
2022/11/28 06:18:34;;;;;;;57.55;20.33;;;5.50;99.90;;;;;;4954554;28;20572;-53
2022/11/28 06:21:02;;;;;;;48.15;19.67;;;5.40;99.90;;;;;;4989043;28;20073;-58
2022/11/28 06:23:27;;;;;;;56.78;18.13;;;5.40;99.90;;;;;;4990362;28;20066;-54
2022/11/28 06:25:53;;;;;;;60.13;18.98;;;5.20;99.90;;;;;;4989808;28;20038;-52
2022/11/28 06:28:19;;;;;;;64.50;19.85;;;5.30;99.90;;;;;;4990716;28;20046;-54
2022/11/28 06:30:44;;;;;;;69.07;20.23;;;5.20;99.90;;;;;;4990276;28;20034;-54
2022/11/28 06:33:10;;;;;;;87.30;20.50;;;5.30;99.90;;;;;;5018935;28;20124;-57
2022/11/28 06:35:36;;;;;;;69.25;20.77;;;5.30;99.90;;;;;;5046784;28;20067;-55
2022/11/28 06:38:02;;;;;;;62.45;17.83;;;5.30;99.90;;;;;;5050029;28;20098;-53
2022/11/28 06:40:27;;;;;;;75.55;19.80;;;5.10;99.90;;;;;;5049852;28;20037;-58
2022/11/28 06:42:53;;;;;;;57.70;18.60;;;5.20;99.90;;;;;;5051262;28;20037;-57
2022/11/28 06:45:19;;;;;;;98.80;19.83;;;5.30;99.90;;;;;;5046175;28;20029;-54
2022/11/28 06:47:44;;;;;;;59.33;20.20;;;5.30;99.90;;;;;;5043572;28;20048;-56
2022/11/28 06:50:10;;;;;;;52.53;17.95;;;5.40;99.90;;;;;;5053788;28;20459;-58
2022/11/28 06:52:36;;;;;;;83.22;21.42;;;5.30;99.90;;;;;;5052235;28;20033;-59
2022/11/28 06:55:02;;;;;;;61.40;22.77;;;5.20;99.90;;;;;;4985083;28;20447;-57
2022/11/28 06:57:28;;;;;;;63.72;20.20;;;5.30;99.90;;;;;;5049369;28;20021;-57
2022/11/28 06:59:53;;;;;;;88.85;23.15;;;5.20;99.90;;;;;;5052021;28;20491;-61
2022/11/28 07:02:19;;;;;;;81.43;23.05;;;5.30;99.90;;;;;;5051773;28;20025;-57
2022/11/28 07:04:45;;;;;;;88.10;22.27;;;5.40;99.90;;;;;;5049265;28;20032;-55
2022/11/28 07:07:10;;;;;;;71.50;22.08;;;5.50;99.90;;;;;;5042945;28;20033;-59
2022/11/28 07:09:36;;;;;;;54.40;21.65;;;5.30;99.90;;;;;;5051767;28;20031;-52
2022/11/28 07:12:02;;;;;;;60.28;24.13;;;5.30;99.90;;;;;;5052053;28;20064;-55
2022/11/28 07:14:28;;;;;;;82.75;25.83;;;5.40;99.90;;;;;;5001420;28;20056;-60
2022/11/28 07:16:53;;;;;;;93.18;26.98;;;5.50;99.90;;;;;;5051056;28;20031;-56
2022/11/28 07:19:21;;;;;;;78.00;27.73;;;5.60;99.90;;;;;;5048207;28;20398;-57
2022/11/28 07:21:49;;;;;;;76.05;28.15;;;5.80;99.90;;;;;;5048293;28;20507;-56
2022/11/28 07:24:18;;;;;;;71.70;27.48;;;5.80;99.90;;;;;;5051880;28;20040;-59
2022/11/28 07:26:44;;;;;;;67.05;29.23;;;5.90;99.90;;;;;;5050547;28;20036;-57
2022/11/28 07:29:15;;;;;;;69.63;28.45;;;6.10;99.90;;;;;;5052001;28;20044;-57
2022/11/28 07:31:41;;;;;;;65.13;26.48;;;6.10;99.90;;;;;;5046301;28;20117;-60
2022/11/28 07:34:08;;;;;;;67.38;27.88;;;6.00;99.90;;;;;;5025909;28;20075;-57
2022/11/28 07:36:35;;;;;;;64.95;26.75;;;;;;;;;;5045967;28;20021;-55
2022/11/28 07:39:03;;;;;;;72.65;30.02;;;6.50;99.90;;;;;;5048513;28;20033;-55
2022/11/28 07:41:28;;;;;;;64.50;29.13;;;6.60;99.90;;;;;;5051004;28;20037;-57
2022/11/28 07:43:56;;;;;;;64.15;26.88;;;6.60;99.90;;;;;;4999181;28;20066;-58
2022/11/28 07:46:23;;;;;;;66.78;29.25;;;6.40;99.90;;;;;;5052016;28;20036;-57
2022/11/28 07:48:49;;;;;;;68.05;30.08;;;6.60;99.90;;;;;;5014316;28;20044;-57
2022/11/28 07:51:20;;;;;;;70.97;29.02;;;6.70;99.90;;;;;;5052057;28;20329;-58
2022/11/28 07:53:46;;;;;;;64.30;29.80;;;6.70;99.90;;;;;;5035188;28;20048;-56
2022/11/28 07:56:15;;;;;;;62.03;28.55;;;7.00;99.90;;;;;;5042970;28;20435;-53
2022/11/28 07:58:43;;;;;;;68.32;29.13;;;7.00;99.90;;;;;;5048585;28;20039;-54
2022/11/28 08:01:13;;;;;;;64.68;28.65;;;6.90;99.90;;;;;;5047869;28;20036;-56
2022/11/28 08:03:39;;;;;;;62.03;28.33;;;7.10;99.90;;;;;;5050558;28;20025;-55
2022/11/28 08:06:07;;;;;;;66.35;30.92;;;6.90;99.90;;;;;;5008526;28;20496;-56
2022/11/28 08:08:33;;;;;;;73.60;31.15;;;7.00;99.90;;;;;;5050028;28;20103;-56
2022/11/28 08:10:59;;;;;;;65.93;29.52;;;;;;;;;;5048294;28;20044;-57
2022/11/28 08:13:26;;;;;;;64.38;27.38;;;7.30;99.90;;;;;;5049394;28;20116;-55
2022/11/28 08:15:52;;;;;;;66.70;28.75;;;7.20;99.90;;;;;;5049897;28;20496;-56
2022/11/28 08:18:18;;;;;;;66.72;28.17;;;7.10;99.90;;;;;;5046756;28;20071;-55
2022/11/28 08:20:43;;;;;;;60.17;29.50;;;7.30;99.90;;;;;;5049307;28;20371;-56
2022/11/28 08:23:09;;;;;;;64.95;30.00;;;7.30;99.90;;;;;;5047851;28;20032;-54
2022/11/28 08:25:35;;;;;;;70.03;30.75;;;7.20;99.90;;;;;;5048577;28;20033;-57
2022/11/28 08:28:01;;;;;;;71.18;31.20;;;7.20;99.90;;;;;;5048298;28;20027;-55
2022/11/28 08:30:27;;;;;;;72.97;33.67;;;7.30;99.90;;;;;;5048406;28;20040;-53
2022/11/28 08:32:52;;;;;;;66.22;30.77;;;7.60;99.90;;;;;;5047987;28;20466;-56
2022/11/28 08:35:18;;;;;;;63.67;28.70;;;7.40;99.90;;;;;;5046913;28;20021;-54
2022/11/28 08:37:44;;;;;;;75.28;32.85;;;7.20;99.90;;;;;;5046379;28;20025;-55
2022/11/28 08:40:10;;;;;;;69.15;33.30;;;7.40;99.90;;;;;;5048970;28;20052;-55
2022/11/28 08:42:36;;;;;;;68.32;31.80;;;7.30;99.90;;;;;;4964920;28;20145;-55
2022/11/28 08:45:02;;;;;;;62.50;31.35;;;7.30;99.90;;;;;;5049348;28;20067;-55
2022/11/28 08:47:28;;;;;;;62.42;30.48;;;7.10;99.90;;;;;;5049498;28;20507;-55
2022/11/28 08:49:54;;;;;;;63.15;31.77;;;7.20;99.90;;;;;;5047904;28;20061;-57
2022/11/28 08:52:20;;;;;;;51.40;25.65;;;7.00;99.90;;;;;;5046052;28;20664;-55
2022/11/28 08:54:46;;;;;;;67.15;31.05;;;6.90;99.90;;;;;;5047820;28;20029;-56
2022/11/28 08:57:12;;;;;;;78.93;39.00;;;6.90;99.90;;;;;;5051739;28;20040;-55
2022/11/28 08:59:38;;;;;;;84.20;42.38;;;6.90;99.90;;;;;;5002938;28;20060;-53
2022/11/28 09:02:04;;;;;;;94.60;44.47;;;6.90;99.90;;;;;;5053596;28;20028;-54
2022/11/28 09:04:29;;;;;;;102.82;48.58;;;6.90;99.90;;;;;;5052836;28;20028;-54
2022/11/28 09:06:55;;;;;;;74.68;39.42;;;6.90;99.90;;;;;;5050553;28;20036;-54
2022/11/28 09:09:21;;;;;;;63.13;30.77;;;6.90;99.90;;;;;;5052909;28;20032;-55
2022/11/28 09:11:46;;;;;;;63.75;32.88;;;6.70;99.90;;;;;;5052626;28;20025;-56
2022/11/28 09:14:12;;;;;;;62.00;32.20;;;6.90;99.90;;;;;;5054694;28;20060;-56
2022/11/28 09:16:39;;;;;;;58.03;30.88;;;6.90;99.90;;;;;;5052830;28;20021;-54
2022/11/28 09:19:07;;;;;;;64.35;31.98;;;6.90;99.90;;;;;;5053402;28;20471;-55
2022/11/28 09:21:34;;;;;;;68.63;32.92;;;6.90;99.90;;;;;;5053651;28;20029;-56
2022/11/28 09:24:00;;;;;;;72.03;35.20;;;7.10;99.90;;;;;;5052160;28;20678;-54
2022/11/28 09:26:25;;;;;;;63.67;32.10;;;7.10;99.90;;;;;;5053631;28;20024;-55
2022/11/28 09:28:52;;;;;;;60.88;31.55;;;7.10;99.90;;;;;;5053534;28;20075;-55
2022/11/28 09:31:18;;;;;;;60.58;32.67;;;7.10;99.90;;;;;;5053018;28;20049;-58
2022/11/28 09:33:45;;;;;;;60.60;28.70;;;7.20;99.90;;;;;;5053589;28;20035;-56
2022/11/28 09:36:13;;;;;;;57.63;31.25;;;6.90;99.90;;;;;;5051216;28;20785;-54
2022/11/28 09:38:39;;;;;;;60.40;31.25;;;7.10;99.90;;;;;;5030723;28;20064;-52
2022/11/28 09:41:38;;;;;;;62.92;35.25;;;7.10;99.90;;;;;;4999389;28;20046;-56
2022/11/28 09:44:25;;;;;;;59.40;31.90;;;7.20;99.90;;;;;;5006262;28;20474;-56
2022/11/28 09:46:54;;;;;;;53.15;29.73;;;7.20;99.90;;;;;;5011004;28;20045;-52
2022/11/28 09:50:13;;;;;;;59.10;30.35;;;7.20;99.90;;;;;;5003701;28;20049;-54
2022/11/28 09:53:10;;;;;;;54.13;29.73;;;7.40;99.90;;;;;;4951026;29;20487;-56
2022/11/28 09:55:54;;;;;;;53.45;29.95;;;7.50;99.90;;;;;;4949917;29;20079;-56
2022/11/28 09:58:44;;;;;;;57.50;28.98;;;7.70;99.90;;;;;;4953013;29;20580;-55
2022/11/28 10:01:23;;;;;;;61.53;33.47;;;7.80;99.90;;;;;;4921678;29;20058;-56
2022/11/28 10:03:57;;;;;;;52.35;29.95;;;8.10;99.90;;;;;;4952243;29;20051;-53
2022/11/28 10:06:27;;;;;;;53.10;32.58;;;;;;;;;;4952644;28;20031;-54
2022/11/28 10:09:17;;;;;;;44.30;24.25;;;8.20;99.90;;;;;;4953006;29;20046;-55
2022/11/28 10:11:57;;;;;;;56.97;33.72;;;8.10;99.90;;;;;;4965354;28;20078;-53
2022/11/28 10:14:47;;;;;;;50.85;28.67;;;8.10;99.90;;;;;;4991245;28;20022;-54
2022/11/28 10:17:34;;;;;;;53.15;28.35;;;8.10;99.90;;;;;;4960012;28;20031;-56
2022/11/28 10:20:11;;;;;;;49.92;29.48;;;8.30;99.90;;;;;;4958759;28;20042;-54
2022/11/28 10:22:43;;;;;;;51.85;30.38;;;8.40;99.90;;;;;;4958785;28;20573;-55
2022/11/28 10:25:25;;;;;;;48.33;28.95;;;8.50;99.90;;;;;;4945010;28;20041;-54
2022/11/28 10:27:51;;;;;;;42.75;26.23;;;8.70;99.90;;;;;;4992131;28;20476;-53
2022/11/28 10:30:32;;;;;;;41.67;25.50;;;8.50;99.90;;;;;;5049631;28;20033;-54
2022/11/28 10:33:14;;;;;;;44.63;26.80;;;8.40;99.90;;;;;;5049094;28;20082;-54
2022/11/28 10:35:58;;;;;;;59.88;31.48;;;8.30;99.90;;;;;;5049934;28;20028;-56
2022/11/28 10:38:26;;;;;;;51.75;30.55;;;8.60;99.90;;;;;;5051277;28;20040;-53
2022/11/28 10:41:17;;;;;;;46.90;27.05;;;8.70;99.90;;;;;;5051595;28;20032;-49
2022/11/28 10:43:54;;;;;;;40.67;25.60;;;8.80;99.90;;;;;;5051836;28;20536;-52
2022/11/28 10:46:23;;;;;;;41.78;25.92;;;8.70;99.90;;;;;;5051438;28;20116;-51
2022/11/28 10:49:13;;;;;;;47.63;26.85;;;9.00;99.90;;;;;;5032892;28;20405;-53
2022/11/28 10:51:52;;;;;;;36.60;22.25;;;8.80;99.90;;;;;;5051246;28;20168;-58
2022/11/28 10:55:01;;;;;;;43.75;24.08;;;8.80;99.90;;;;;;5050138;28;20434;-53
2022/11/28 10:57:30;;;;;;;38.42;23.38;;;;;;;;;;5049860;28;20112;-54
2022/11/28 11:00:05;;;;;;;41.65;25.50;;;9.00;99.90;;;;;;5047937;28;20033;-55
2022/11/28 11:02:50;;;;;;;40.22;24.38;;;9.20;99.90;;;;;;5047344;28;20032;-49
2022/11/28 11:05:35;;;;;;;39.20;23.27;;;8.90;99.90;;;;;;5051170;28;20036;-53
2022/11/28 11:08:18;;;;;;;41.20;24.13;;;8.60;99.90;;;;;;5050346;28;20039;-50
2022/11/28 11:10:58;;;;;;;43.25;25.75;;;8.50;99.90;;;;;;5051857;28;20040;-52
2022/11/28 11:13:27;;;;;;;37.90;23.63;;;8.50;99.90;;;;;;5051942;28;20045;-59
2022/11/28 11:16:11;;;;;;;39.78;23.35;;;8.60;99.90;;;;;;5050481;28;20026;-54
2022/11/28 11:18:53;;;;;;;41.75;23.33;;;8.70;99.90;;;;;;5050757;28;20126;-53
2022/11/28 11:21:20;;;;;;;38.20;22.73;;;8.90;99.90;;;;;;5051221;28;20481;-50
2022/11/28 11:23:48;;;;;;;41.83;25.50;;;8.90;99.90;;;;;;5049875;28;20032;-55
2022/11/28 11:26:26;;;;;;;37.72;23.58;;;8.90;99.90;;;;;;5050446;28;20029;-54
2022/11/28 11:28:52;;;;;;;37.33;23.52;;;9.10;99.90;;;;;;5010282;28;20120;-52
2022/11/28 11:31:25;;;;;;;33.92;20.17;;;9.00;99.90;;;;;;5051195;28;20425;-51
2022/11/28 11:34:00;;;;;;;32.47;20.27;;;8.70;99.90;;;;;;5050301;28;20025;-56
2022/11/28 11:36:32;;;;;;;36.65;19.80;;;8.70;99.90;;;;;;5051138;28;20028;-51
2022/11/28 11:39:27;;;;;;;40.42;22.20;;;8.50;99.90;;;;;;5049057;28;20044;-59
2022/11/28 11:41:58;;;;;;;38.05;22.98;;;8.50;99.90;;;;;;4932272;29;20035;-54
2022/11/28 11:44:28;;;;;;;34.80;21.92;;;8.70;99.90;;;;;;4931546;29;20508;-54
2022/11/28 11:47:08;;;;;;;37.42;23.38;;;8.50;99.90;;;;;;4932143;29;20051;-60
2022/11/28 11:49:37;;;;;;;29.55;17.42;;;8.60;99.90;;;;;;4894150;29;20146;-54
2022/11/28 11:52:04;;;;;;;38.08;22.75;;;8.30;99.90;;;;;;4925781;29;20032;-54
2022/11/28 11:54:30;;;;;;;33.85;19.85;;;8.60;99.90;;;;;;4925971;29;20095;-56
2022/11/28 11:56:57;;;;;;;37.70;22.48;;;8.70;99.90;;;;;;4923002;29;20444;-49
2022/11/28 11:59:49;;;;;;;35.65;21.85;;;8.70;99.90;;;;;;4913303;29;20088;-50
2022/11/28 12:02:40;;;;;;;34.53;20.10;;;8.70;99.90;;;;;;4924988;29;20036;-50
2022/11/28 12:05:33;;;;;;;29.70;19.90;;;8.60;99.90;;;;;;4905436;29;20039;-63
2022/11/28 12:08:01;;;;;;;30.25;18.92;;;8.90;99.90;;;;;;4820412;29;20499;-54
2022/11/28 12:10:30;;;;;;;31.00;18.33;;;8.80;99.90;;;;;;4804677;29;20564;-55
2022/11/28 12:12:57;;;;;;;30.40;18.40;;;8.70;99.90;;;;;;4819950;29;20554;-55
2022/11/28 12:15:43;;;;;;;28.33;17.95;;;8.60;99.90;;;;;;4804823;29;20042;-58
2022/11/28 12:18:32;;;;;;;27.33;16.95;;;8.60;99.90;;;;;;4830789;29;20128;-56
2022/11/28 12:21:41;;;;;;;29.08;18.23;;;8.70;99.90;;;;;;4854998;29;20156;-57
2022/11/28 12:24:16;;;;;;;31.23;19.42;;;8.70;99.90;;;;;;4864913;29;20044;-52
2022/11/28 12:26:55;;;;;;;29.77;17.92;;;8.60;99.90;;;;;;4836861;29;20053;-59
2022/11/28 12:29:40;;;;;;;29.42;19.60;;;8.40;99.90;;;;;;4864477;29;20184;-59
2022/11/28 12:32:30;;;;;;;29.90;17.27;;;8.50;99.90;;;;;;4867227;29;20067;-59
2022/11/28 12:35:08;;;;;;;30.85;19.20;;;8.60;99.90;;;;;;4864793;29;20181;-55
2022/11/28 12:38:02;;;;;;;25.13;16.90;;;8.70;99.90;;;;;;4840947;29;20065;-56
2022/11/28 12:40:46;;;;;;;30.33;18.98;;;8.60;99.90;;;;;;4868570;29;20520;-55
2022/11/28 12:43:14;;;;;;;24.50;15.82;;;8.70;99.90;;;;;;4939991;29;20039;-55
2022/11/28 12:45:53;;;;;;;19.23;10.80;;;8.70;99.90;;;;;;4979198;28;20043;-55
2022/11/28 12:48:24;;;;;;;20.73;12.38;;;8.60;99.90;;;;;;4988267;28;20082;-56
2022/11/28 12:51:21;;;;;;;19.30;13.52;;;8.60;99.90;;;;;;4942747;28;20131;-55
2022/11/28 12:54:11;;;;;;;20.90;14.75;;;8.50;99.90;;;;;;4949891;29;20040;-55
2022/11/28 12:56:49;;;;;;;22.00;13.65;;;8.90;99.90;;;;;;4935095;29;20118;-55
2022/11/28 12:59:24;;;;;;;21.00;12.40;;;8.90;99.90;;;;;;4982018;28;20521;-54
2022/11/28 13:02:21;;;;;;;20.88;14.38;;;8.80;99.90;;;;;;4988069;28;20470;-54
2022/11/28 13:05:05;;;;;;;20.25;12.05;;;9.20;99.90;;;;;;4988910;28;20549;-55